Time;durP1;ratioP1;P1;durP2;ratioP2;P2;SDS_P1;SDS_P2;PMS_P1;PMS_P2;Temp;Humidity;BMP_temperature;BMP_pressure;BME280_temperature;BME280_humidity;BME280_pressure;Samples;Min_cycle;Max_cycle;Signal;HPM_P1;HPM_P2
2022/06/25 00:00:12;;;;;;;12.07;6.13;;;;;;;20.76;61.23;94506.28;4208149;28;20055;-50
2022/06/25 00:02:16;;;;;;;7.27;5.13;;;;;;;20.72;61.30;94505.09;4202644;28;20070;-51
2022/06/25 00:06:39;;;;;;;7.77;6.07;;;;;;;20.81;61.10;94487.75;4166140;28;1228653;-52
2022/06/25 00:08:40;;;;;;;8.82;6.00;;;;;;;20.88;61.22;94490.31;4209761;28;20056;-52
2022/06/25 00:10:42;;;;;;;7.70;5.85;;;;;;;20.94;61.10;94481.41;4210666;28;20055;-52
2022/06/25 00:12:44;;;;;;;9.35;5.80;;;;;;;21.02;60.73;94480.28;4209223;28;20097;-48
2022/06/25 00:14:46;;;;;;;7.40;6.07;;;;;;;21.02;60.66;94472.31;4209107;28;20060;-52
2022/06/25 00:16:47;;;;;;;6.88;5.78;;;;;;;21.10;60.62;94468.47;4208662;28;20052;-54
2022/06/25 00:18:50;;;;;;;6.35;5.55;;;;;;;21.11;60.61;94473.56;4209762;28;20476;-54
2022/06/25 00:20:51;;;;;;;6.20;5.57;;;;;;;21.10;60.84;94469.31;4209858;28;20511;-53
2022/06/25 00:22:53;;;;;;;8.85;5.47;;;;;;;21.14;60.83;94475.78;4210052;28;20054;-53
2022/06/25 00:24:55;;;;;;;6.03;5.43;;;;;;;21.16;60.45;94480.88;4204475;28;20101;-51
2022/06/25 00:26:56;;;;;;;7.85;6.40;;;;;;;21.19;60.73;94483.09;4194406;28;20485;-53
2022/06/25 00:28:58;;;;;;;9.70;6.60;;;;;;;21.22;60.71;94478.09;4205355;28;20052;-50
2022/06/25 00:31:00;;;;;;;10.82;5.40;;;;;;;21.26;60.57;94478.47;4198285;28;20135;-53
2022/06/25 00:33:02;;;;;;;7.20;5.45;;;;;;;21.26;60.49;94479.25;4209876;28;20218;-54
2022/06/25 00:35:04;;;;;;;11.05;6.07;;;;;;;21.28;60.26;94481.69;4209078;28;20612;-48
2022/06/25 00:37:07;;;;;;;13.25;5.68;;;;;;;21.24;60.40;94480.53;4207908;28;20113;-50
2022/06/25 00:39:08;;;;;;;8.02;6.40;;;;;;;21.20;60.46;94482.84;4209710;28;20105;-48
2022/06/25 00:41:12;;;;;;;8.35;5.68;;;;;;;21.24;60.38;94485.88;4209131;28;20064;-51
2022/06/25 00:43:14;;;;;;;8.40;5.47;;;;;;;21.25;60.39;94469.66;4208662;28;20128;-51
2022/06/25 00:45:16;;;;;;;10.13;6.22;;;;;;;21.22;60.48;94469.31;4207084;28;20520;-52
2022/06/25 00:47:17;;;;;;;12.05;5.85;;;;;;;21.20;60.48;94458.88;4209360;28;20127;-51
2022/06/25 00:49:19;;;;;;;9.48;5.50;;;;;;;21.24;60.29;94462.69;4210202;28;20123;-55
2022/06/25 00:51:22;;;;;;;13.00;10.65;;;;;;;21.21;59.72;94454.38;4206003;28;20040;-54
2022/06/25 00:53:33;;;;;;;16.30;11.70;;;;;;;21.20;59.92;94466.84;4198797;28;20078;-52
2022/06/25 00:55:37;;;;;;;11.38;9.60;;;;;;;21.13;59.80;94468.84;4209248;28;20578;-52
2022/06/25 00:57:41;;;;;;;15.63;14.05;;;;;;;20.86;59.78;94469.25;4206719;28;20051;-49
2022/06/25 00:59:44;;;;;;;21.23;17.48;;;;;;;20.71;60.46;94474.19;4195046;28;20048;-52
2022/06/25 01:01:45;;;;;;;24.67;17.95;;;;;;;20.64;60.46;94473.47;4209099;28;20105;-50
2022/06/25 01:03:47;;;;;;;21.13;18.20;;;;;;;20.53;60.41;94472.38;4201612;28;20102;-51
2022/06/25 01:05:49;;;;;;;22.42;18.63;;;;;;;20.45;60.84;94467.34;4199383;28;20056;-53
2022/06/25 01:07:51;;;;;;;19.85;15.75;;;;;;;20.46;61.07;94463.69;4208242;28;20060;-50
2022/06/25 01:09:53;;;;;;;14.65;13.00;;;;;;;20.47;60.91;94465.28;4207961;28;20051;-53
2022/06/25 01:11:55;;;;;;;10.25;7.93;;;;;;;20.40;60.81;94475.22;4197265;28;20040;-54
2022/06/25 01:13:56;;;;;;;8.02;7.20;;;;;;;20.39;61.12;94474.41;4203155;28;20181;-49
2022/06/25 01:15:58;;;;;;;10.70;6.50;;;;;;;20.44;60.91;94477.19;4202222;28;20105;-50
2022/06/25 01:18:00;;;;;;;11.20;6.35;;;;;;;20.46;60.70;94477.78;4208308;28;20056;-51
2022/06/25 01:20:05;;;;;;;9.15;6.50;;;;;;;20.46;60.55;94474.31;4208064;28;20100;-52
2022/06/25 01:22:08;;;;;;;10.05;6.40;;;;;;;20.47;60.92;94478.59;4205988;28;20059;-51
2022/06/25 01:24:09;;;;;;;6.82;5.28;;;;;;;20.50;60.25;94469.34;4201180;28;20047;-51
2022/06/25 01:26:11;;;;;;;7.50;4.60;;;;;;;20.46;59.95;94467.13;4210230;28;20495;-52
2022/06/25 01:28:13;;;;;;;7.18;4.90;;;;;;;20.45;60.06;94470.81;4198713;28;20340;-48
2022/06/25 01:30:15;;;;;;;6.38;5.10;;;;;;;20.46;59.75;94475.13;4209704;28;20455;-51
2022/06/25 01:32:17;;;;;;;8.25;6.75;;;;;;;20.48;59.94;94474.06;4203471;28;20056;-51
2022/06/25 01:34:19;;;;;;;5.63;4.43;;;;;;;20.38;59.96;94472.78;4207046;28;20048;-51
2022/06/25 01:36:20;;;;;;;9.88;4.50;;;;;;;20.31;59.99;94472.06;4213003;28;20514;-51
2022/06/25 01:38:22;;;;;;;9.60;5.18;;;;;;;20.27;60.41;94470.06;4220579;28;20079;-53
2022/06/25 01:40:24;;;;;;;5.10;4.60;;;;;;;20.30;60.61;94475.75;4214127;28;20580;-54
2022/06/25 01:44:46;;;;;;;7.03;5.22;;;;;;;20.29;60.89;94474.13;4205119;28;20048;-51
2022/06/25 01:46:48;;;;;;;7.03;5.93;;;;;;;19.94;62.47;94474.78;4208812;28;20169;-53
2022/06/25 01:48:50;;;;;;;14.35;7.22;;;;;;;19.67;63.43;94474.22;4207801;28;20044;-49
2022/06/25 01:50:51;;;;;;;7.35;6.05;;;;;;;19.64;63.71;94478.13;4213174;28;20108;-49
2022/06/25 01:52:54;;;;;;;11.40;7.00;;;;;;;19.53;64.36;94475.38;4207074;28;20047;-51
2022/06/25 01:54:55;;;;;;;10.82;7.53;;;;;;;19.21;65.23;94478.94;4207566;28;20515;-49
2022/06/25 01:56:57;;;;;;;9.65;7.47;;;;;;;18.80;66.65;94479.50;4208560;28;20127;-51
2022/06/25 01:58:59;;;;;;;8.07;7.22;;;;;;;18.42;68.00;94491.72;4194045;28;20420;-49
2022/06/25 02:01:01;;;;;;;10.43;7.13;;;;;;;18.47;68.25;94490.28;4206372;28;20494;-48
2022/06/25 02:03:03;;;;;;;7.90;6.22;;;;;;;18.64;67.83;94491.38;4208544;28;20117;-51
2022/06/25 02:05:06;;;;;;;8.27;6.60;;;;;;;18.84;67.43;94493.94;4203946;28;20308;-51
2022/06/25 02:07:08;;;;;;;9.88;6.85;;;;;;;18.86;66.58;94501.69;4203902;28;20082;-53
2022/06/25 02:09:09;;;;;;;8.93;6.68;;;;;;;18.67;67.09;94504.25;4207378;28;20094;-50
2022/06/25 02:11:12;;;;;;;11.93;6.60;;;;;;;18.65;67.09;94514.25;4207942;28;20056;-51
2022/06/25 02:13:14;;;;;;;9.23;6.65;;;;;;;18.34;68.25;94510.53;4211826;28;20036;-49
2022/06/25 02:15:16;;;;;;;8.27;7.03;;;;;;;18.09;68.85;94502.50;4216617;28;20101;-52
2022/06/25 02:17:17;;;;;;;16.20;6.88;;;;;;;17.97;69.39;94497.03;4208519;28;20048;-51
2022/06/25 02:19:19;;;;;;;9.50;6.53;;;;;;;18.13;69.24;94493.09;4207191;28;20052;-56
2022/06/25 02:21:21;;;;;;;9.23;6.97;;;;;;;18.28;68.50;94490.16;4206889;28;20469;-54
2022/06/25 02:23:23;;;;;;;9.00;6.90;;;;;;;18.40;68.27;94490.31;4195892;28;20051;-56
2022/06/25 02:25:25;;;;;;;9.55;6.55;;;;;;;18.57;67.78;94493.28;4197494;28;20045;-55
2022/06/25 02:27:27;;;;;;;11.40;6.75;;;;;;;18.69;67.26;94494.22;4195330;28;20055;-54
2022/06/25 02:29:29;;;;;;;8.63;6.53;;;;;;;18.80;67.04;94493.56;4204287;28;20101;-56
2022/06/25 02:31:31;;;;;;;9.70;6.80;;;;;;;18.88;66.71;94491.66;4212008;28;20051;-58
2022/06/25 02:33:33;;;;;;;9.63;6.85;;;;;;;18.92;66.56;94484.91;4208347;28;20529;-56
2022/06/25 02:35:35;;;;;;;12.75;7.03;;;;;;;19.00;66.46;94495.25;4195276;28;20485;-56
2022/06/25 02:37:37;;;;;;;11.48;6.60;;;;;;;19.01;66.08;94510.16;4199834;28;20093;-57
2022/06/25 02:39:39;;;;;;;10.75;6.93;;;;;;;18.61;67.16;94519.16;4197664;28;20048;-55
2022/06/25 02:41:40;;;;;;;8.57;6.95;;;;;;;18.27;68.35;94523.00;4209652;28;20056;-56
2022/06/25 02:43:42;;;;;;;8.55;6.40;;;;;;;18.17;69.08;94525.28;4207278;28;20131;-50
2022/06/25 02:45:44;;;;;;;11.10;6.57;;;;;;;18.33;68.80;94519.50;4206321;28;20482;-51
2022/06/25 02:47:46;;;;;;;7.35;6.45;;;;;;;18.44;67.89;94520.69;4211745;28;20219;-49
2022/06/25 02:49:48;;;;;;;7.65;6.55;;;;;;;18.43;67.86;94513.75;4199309;28;20048;-50
2022/06/25 02:51:49;;;;;;;8.85;6.22;;;;;;;18.55;67.88;94516.56;4209883;28;20393;-52
2022/06/25 02:53:51;;;;;;;8.98;6.15;;;;;;;18.78;67.57;94506.22;4206294;28;20128;-53
2022/06/25 03:00:34;;;;;;;13.43;7.13;;;;;;;19.44;65.30;94499.59;4209821;28;20060;-51
2022/06/25 03:02:36;;;;;;;13.10;5.95;;;;;;;19.53;65.01;94497.47;4213558;28;20115;-52
2022/06/25 03:04:38;;;;;;;8.18;6.18;;;;;;;19.67;64.69;94492.00;4210211;28;20420;-48
2022/06/25 03:06:40;;;;;;;9.85;6.03;;;;;;;19.77;64.44;94493.16;4201880;28;20158;-50
2022/06/25 03:08:41;;;;;;;8.77;6.28;;;;;;;19.89;64.09;94498.53;4195851;28;20550;-53
2022/06/25 03:10:44;;;;;;;8.35;6.30;;;;;;;19.99;63.37;94501.50;4210324;28;20112;-52
2022/06/25 03:12:45;;;;;;;13.52;6.38;;;;;;;20.10;63.37;94509.75;4207038;28;20474;-49
2022/06/25 03:14:47;;;;;;;11.52;6.18;;;;;;;19.91;63.69;94509.75;4222671;28;20044;-50
2022/06/25 03:16:49;;;;;;;8.10;6.10;;;;;;;19.77;64.20;94513.59;4211338;28;20056;-53
2022/06/25 03:18:51;;;;;;;11.60;6.40;;;;;;;19.80;64.21;94505.19;4210201;28;20093;-51
2022/06/25 03:20:53;;;;;;;10.63;5.90;;;;;;;19.91;64.24;94512.41;4221475;28;20040;-52
2022/06/25 03:22:55;;;;;;;9.40;6.43;;;;;;;19.98;63.36;94515.84;4214121;28;20051;-50
2022/06/25 03:24:57;;;;;;;8.40;5.82;;;;;;;19.85;63.41;94515.94;4206447;28;20131;-49
2022/06/25 03:26:59;;;;;;;9.40;6.38;;;;;;;19.78;63.95;94515.22;4208615;28;20052;-51
2022/06/25 03:29:02;;;;;;;6.53;5.20;;;;;;;19.81;63.95;94504.97;4210073;28;20419;-50
2022/06/25 03:31:04;;;;;;;8.27;6.20;;;;;;;19.85;63.71;94515.94;4208654;28;20109;-57
2022/06/25 03:33:06;;;;;;;9.18;5.70;;;;;;;19.94;63.68;94514.66;4208695;28;20052;-49
2022/06/25 03:35:07;;;;;;;10.52;5.25;;;;;;;20.05;63.59;94505.91;4208403;28;20048;-52
2022/06/25 03:37:09;;;;;;;7.13;5.13;;;;;;;20.18;63.26;94496.16;4196348;28;20044;-54
2022/06/25 03:39:11;;;;;;;8.25;5.40;;;;;;;20.33;62.89;94501.09;4215841;28;20104;-51
2022/06/25 03:43:33;;;;;;;7.43;6.35;;;;;;;20.49;62.04;94497.00;4212036;27;20056;-51
2022/06/25 03:45:34;;;;;;;7.32;6.25;;;;;;;20.49;61.90;94502.31;4222101;28;20136;-49
2022/06/25 03:47:36;;;;;;;8.07;6.18;;;;;;;20.30;62.42;94498.88;4216584;28;20097;-53
2022/06/25 03:49:38;;;;;;;7.75;6.22;;;;;;;20.18;62.88;94499.63;4226660;28;20062;-50
2022/06/25 03:51:40;;;;;;;10.13;5.68;;;;;;;20.21;63.21;94493.06;4227311;28;20051;-51
2022/06/25 03:53:42;;;;;;;11.48;6.88;;;;;;;20.28;63.23;94493.78;4225112;28;20055;-58
2022/06/25 03:55:44;;;;;;;10.45;7.20;;;;;;;20.36;63.12;94501.44;4209512;28;20421;-49
2022/06/25 03:57:54;;;;;;;10.35;7.00;;;;;;;20.45;63.01;94493.97;4211326;28;20079;-47
2022/06/25 03:59:55;;;;;;;7.93;6.22;;;;;;;20.53;62.65;94491.00;4208181;28;20063;-53
2022/06/25 04:01:57;;;;;;;9.60;6.13;;;;;;;20.59;62.35;94484.00;4210517;28;20078;-49
2022/06/25 04:03:59;;;;;;;11.15;6.05;;;;;;;20.63;62.30;94474.53;4209061;28;20377;-50
2022/06/25 04:06:02;;;;;;;6.93;6.28;;;;;;;20.65;62.24;94475.13;4209419;28;20274;-51
2022/06/25 04:08:04;;;;;;;7.72;5.90;;;;;;;20.65;62.24;94488.41;4200626;28;20287;-48
2022/06/25 04:10:06;;;;;;;6.85;6.10;;;;;;;20.72;62.30;94494.44;4204930;28;20059;-51
2022/06/25 04:12:08;;;;;;;9.98;5.78;;;;;;;20.79;62.06;94500.47;4207744;28;20193;-50
2022/06/25 04:14:09;;;;;;;8.10;6.13;;;;;;;20.84;61.83;94497.97;4208726;28;20058;-49
2022/06/25 04:16:11;;;;;;;9.73;6.65;;;;;;;20.93;61.77;94510.94;4206268;28;20546;-49
2022/06/25 04:18:13;;;;;;;14.80;7.32;;;;;;;20.98;61.72;94514.53;4201309;28;20062;-52
2022/06/25 04:20:15;;;;;;;13.40;6.72;;;;;;;20.99;61.68;94505.53;4209826;28;20070;-53
2022/06/25 04:22:17;;;;;;;12.77;6.80;;;;;;;21.03;61.44;94506.66;4209678;28;20117;-49
2022/06/25 04:24:18;;;;;;;10.18;5.95;;;;;;;21.10;61.37;94511.91;4199399;28;20056;-48
2022/06/25 04:26:20;;;;;;;10.00;6.20;;;;;;;21.18;61.05;94516.09;4205664;28;20055;-50
2022/06/25 04:30:42;;;;;;;12.60;7.20;;;;;;;21.17;60.74;94517.13;4200667;28;20094;-49
2022/06/25 04:32:44;;;;;;;10.38;6.57;;;;;;;21.13;60.67;94519.44;4202690;28;20105;-52
2022/06/25 04:34:46;;;;;;;10.50;6.70;;;;;;;20.89;60.71;94505.28;4210017;28;20125;-51
2022/06/25 04:36:48;;;;;;;11.73;6.47;;;;;;;20.63;61.97;94506.47;4208800;28;20052;-49
2022/06/25 04:38:50;;;;;;;11.73;7.05;;;;;;;20.65;62.28;94509.72;4207021;28;20051;-51
2022/06/25 04:40:52;;;;;;;9.20;7.70;;;;;;;20.74;62.02;94512.88;4199329;28;20082;-48
2022/06/25 04:42:54;;;;;;;11.50;6.47;;;;;;;20.78;61.81;94522.00;4208964;28;20105;-51
2022/06/25 04:44:55;;;;;;;11.50;6.88;;;;;;;20.65;62.16;94518.50;4208060;28;20128;-50
2022/06/25 04:46:57;;;;;;;12.07;6.82;;;;;;;20.43;62.87;94527.97;4208176;28;20246;-48
2022/06/25 04:48:59;;;;;;;15.50;8.68;;;;;;;20.43;63.18;94522.66;4193188;28;20045;-51
2022/06/25 04:51:01;;;;;;;14.77;8.70;;;;;;;20.43;62.99;94533.28;4198354;28;20063;-50
2022/06/25 04:53:03;;;;;;;18.77;8.82;;;;;;;20.41;62.67;94525.56;4209934;28;20433;-50
2022/06/25 04:55:05;;;;;;;15.48;9.35;;;;;;;20.36;62.84;94519.25;4208186;28;20158;-50
2022/06/25 04:57:07;;;;;;;9.98;7.68;;;;;;;20.22;63.55;94532.72;4194182;28;20052;-52
2022/06/25 04:59:09;;;;;;;14.32;8.23;;;;;;;20.30;63.70;94523.63;4197694;28;20051;-49
2022/06/25 05:01:10;;;;;;;16.15;8.57;;;;;;;20.35;63.29;94525.59;4200605;28;20098;-51
2022/06/25 05:03:12;;;;;;;12.98;7.68;;;;;;;20.43;63.13;94535.94;4201817;28;20052;-48
2022/06/25 05:05:14;;;;;;;13.88;7.55;;;;;;;20.41;63.03;94533.53;4196854;28;20040;-51
2022/06/25 05:07:16;;;;;;;10.55;7.93;;;;;;;20.23;63.62;94534.34;4205609;28;20063;-49
2022/06/25 05:09:17;;;;;;;10.65;8.27;;;;;;;20.36;62.99;94541.34;4195967;28;20438;-49
2022/06/25 05:11:19;;;;;;;11.02;7.75;;;;;;;20.48;63.08;94536.09;4208057;28;20132;-52
2022/06/25 05:13:21;;;;;;;12.88;8.18;;;;;;;20.73;62.46;94528.00;4209360;28;20295;-50
2022/06/25 05:15:23;;;;;;;12.27;8.07;;;;;;;20.93;62.17;94537.56;4207026;28;20048;-52
2022/06/25 05:17:24;;;;;;;17.70;9.18;;;;;;;21.04;61.40;94532.28;4218963;28;20143;-50
2022/06/25 05:19:43;;;;;;;13.68;8.82;;;;;;;21.11;60.72;94524.19;4209979;28;20201;-51
2022/06/25 05:21:45;;;;;;;12.77;7.55;;;;;;;21.15;60.68;94524.53;4209177;28;20066;-49
2022/06/25 05:23:47;;;;;;;11.55;7.43;;;;;;;21.26;60.71;94529.06;4208538;28;20044;-49
2022/06/25 05:25:49;;;;;;;14.13;8.02;;;;;;;21.42;60.47;94530.28;4207918;28;20048;-48
2022/06/25 05:27:51;;;;;;;12.55;7.40;;;;;;;21.39;60.18;94536.03;4208412;28;20125;-50
2022/06/25 05:29:52;;;;;;;14.57;7.85;;;;;;;21.13;61.05;94535.41;4206669;28;20511;-52
2022/06/25 05:31:54;;;;;;;14.40;8.27;;;;;;;21.12;61.23;94528.44;4205714;28;20147;-53
2022/06/25 05:33:56;;;;;;;16.70;8.50;;;;;;;21.04;61.71;94529.63;4197918;28;20052;-52
2022/06/25 05:35:57;;;;;;;15.75;8.55;;;;;;;20.84;62.10;94535.25;4200020;28;20040;-50
2022/06/25 05:37:59;;;;;;;14.55;7.90;;;;;;;20.81;62.49;94535.69;4203528;28;20147;-53
2022/06/25 05:40:01;;;;;;;11.60;8.05;;;;;;;20.78;62.62;94538.81;4194185;28;20060;-52
2022/06/25 05:42:04;;;;;;;12.70;8.13;;;;;;;20.84;62.81;94537.91;4207791;28;20488;-51
2022/06/25 05:44:05;;;;;;;9.65;7.18;;;;;;;20.99;62.47;94536.66;4208428;28;20101;-50
2022/06/25 05:46:07;;;;;;;10.63;8.00;;;;;;;21.15;61.68;94540.53;4199390;28;20045;-51
2022/06/25 05:48:09;;;;;;;14.00;8.27;;;;;;;21.16;60.90;94539.47;4202972;28;20051;-50
2022/06/25 05:50:11;;;;;;;11.55;8.70;;;;;;;20.94;61.57;94544.53;4195225;28;20515;-51
2022/06/25 05:52:13;;;;;;;13.13;8.02;;;;;;;20.93;61.80;94551.72;4206615;28;20162;-48
2022/06/25 05:54:16;;;;;;;14.75;8.35;;;;;;;21.06;61.75;94545.38;4207630;28;20546;-53
2022/06/25 05:56:17;;;;;;;11.38;7.90;;;;;;;21.32;61.61;94543.34;4217631;28;20047;-49
2022/06/25 05:58:19;;;;;;;10.23;7.63;;;;;;;21.59;60.93;94547.19;4203968;28;20193;-49
2022/06/25 06:00:21;;;;;;;11.20;6.80;;;;;;;21.77;60.17;94540.97;4204000;28;20078;-51
2022/06/25 06:02:25;;;;;;;10.05;7.45;;;;;;;21.92;59.15;94545.00;4208879;28;20558;-56
2022/06/25 06:04:28;;;;;;;15.38;7.05;;;;;;;21.92;59.33;94545.81;4208193;28;20082;-59
2022/06/25 06:06:30;;;;;;;13.35;7.32;;;;;;;22.02;58.88;94546.03;4208478;28;20135;-54
2022/06/25 06:08:32;;;;;;;13.60;6.97;;;;;;;21.81;58.32;94543.94;4204782;28;20058;-57
2022/06/25 06:10:34;;;;;;;10.27;7.03;;;;;;;21.56;58.51;94534.34;4204086;28;20109;-59
2022/06/25 06:12:36;;;;;;;9.20;7.38;;;;;;;21.46;59.27;94540.22;4221798;28;20044;-59
2022/06/25 06:14:38;;;;;;;8.35;6.97;;;;;;;21.59;58.95;94539.19;4208151;28;20052;-58
2022/06/25 06:16:40;;;;;;;9.30;6.35;;;;;;;21.84;59.06;94538.19;4207287;28;20055;-57
2022/06/25 06:18:41;;;;;;;11.45;6.47;;;;;;;22.11;58.37;94543.81;4220420;28;20155;-56
2022/06/25 06:20:43;;;;;;;9.93;6.43;;;;;;;22.37;58.20;94550.53;4210560;28;20117;-56
2022/06/25 06:22:45;;;;;;;10.10;6.60;;;;;;;22.36;55.52;94553.44;4199527;28;20485;-57
2022/06/25 06:24:47;;;;;;;11.35;7.07;;;;;;;22.17;56.86;94550.88;4215728;28;20143;-55
2022/06/25 06:26:49;;;;;;;7.80;5.90;;;;;;;22.23;57.38;94551.84;4208080;28;20105;-58
2022/06/25 06:28:51;;;;;;;9.73;6.03;;;;;;;22.45;56.93;94542.13;4208884;28;20055;-55
2022/06/25 06:30:53;;;;;;;10.55;6.10;;;;;;;22.59;55.39;94536.56;4220626;28;20078;-55
2022/06/25 06:32:54;;;;;;;10.23;6.28;;;;;;;22.59;55.58;94533.88;4210199;28;20200;-57
2022/06/25 06:34:56;;;;;;;9.77;6.93;;;;;;;22.57;55.48;94542.13;4225266;28;20368;-56
2022/06/25 06:36:58;;;;;;;6.72;4.80;;;;;;;22.58;54.25;94538.38;4219405;28;20442;-56
2022/06/25 06:39:00;;;;;;;8.10;4.78;;;;;;;22.68;54.19;94548.47;4210794;28;20047;-56
2022/06/25 06:41:01;;;;;;;7.20;4.63;;;;;;;22.82;54.82;94538.28;4211214;28;20511;-56
2022/06/25 06:43:03;;;;;;;10.75;6.18;;;;;;;22.88;55.35;94545.34;4210854;28;20413;-55
2022/06/25 06:45:05;;;;;;;8.63;6.15;;;;;;;23.07;55.69;94537.97;4210319;28;20052;-57
2022/06/25 06:47:07;;;;;;;13.40;6.60;;;;;;;23.27;55.59;94529.50;4210080;28;20728;-56
2022/06/25 06:49:09;;;;;;;9.00;6.63;;;;;;;23.42;55.19;94537.75;4211546;28;20514;-56
2022/06/25 06:51:11;;;;;;;8.20;6.80;;;;;;;23.43;54.33;94539.38;4211297;28;20056;-55
2022/06/25 06:53:12;;;;;;;12.30;6.88;;;;;;;23.11;55.74;94547.13;4211637;28;20055;-56
2022/06/25 06:55:14;;;;;;;10.32;6.95;;;;;;;23.16;56.37;94549.88;4195536;28;20124;-56
2022/06/25 06:57:16;;;;;;;10.00;6.97;;;;;;;23.23;55.46;94549.72;4196546;28;20048;-56
2022/06/25 06:59:17;;;;;;;8.02;6.40;;;;;;;23.05;55.97;94550.75;4211579;28;20116;-56
2022/06/25 07:01:19;;;;;;;9.32;6.65;;;;;;;23.08;56.09;94544.94;4209234;28;20063;-56
2022/06/25 07:03:21;;;;;;;9.82;6.47;;;;;;;23.03;54.95;94542.19;4200309;28;20110;-57
2022/06/25 07:05:29;;;;;;;12.57;6.18;;;;;;;23.08;54.78;94544.94;4208214;28;20040;-54
2022/06/25 07:07:31;;;;;;;7.97;6.22;;;;;;;22.86;55.11;94539.44;4206474;28;20130;-56
2022/06/25 07:09:33;;;;;;;9.00;5.75;;;;;;;22.92;55.25;94540.34;4197642;28;20126;-56
2022/06/25 07:11:36;;;;;;;9.15;5.78;;;;;;;23.02;54.96;94538.69;4205650;28;20128;-57
2022/06/25 07:13:37;;;;;;;8.40;5.78;;;;;;;23.25;54.04;94532.44;4207599;28;20048;-57
2022/06/25 07:15:39;;;;;;;11.52;5.78;;;;;;;23.47;53.66;94531.69;4220378;27;20139;-58
2022/06/25 07:17:41;;;;;;;11.98;6.18;;;;;;;23.62;52.94;94531.13;4210945;28;20115;-55
2022/06/25 07:19:43;;;;;;;6.68;5.72;;;;;;;23.79;53.26;94534.63;4206181;28;20048;-56
2022/06/25 07:21:44;;;;;;;7.70;6.07;;;;;;;23.92;53.41;94531.59;4217124;28;20063;-58
2022/06/25 07:23:46;;;;;;;9.23;6.65;;;;;;;24.10;52.69;94529.69;4205556;28;20411;-58
2022/06/25 07:25:48;;;;;;;14.45;5.50;;;;;;;24.25;52.35;94534.44;4217579;28;20521;-55
2022/06/25 07:27:50;;;;;;;9.82;6.85;;;;;;;24.30;51.28;94527.25;4205519;28;20507;-55
2022/06/25 07:29:52;;;;;;;8.65;6.82;;;;;;;24.42;51.48;94527.16;4208623;28;20047;-57
2022/06/25 07:31:54;;;;;;;11.10;6.00;;;;;;;24.53;51.38;94531.59;4205838;28;20060;-57
2022/06/25 07:33:56;;;;;;;10.93;6.87;;;;;;;24.49;51.09;94527.78;4216208;28;20384;-57
2022/06/25 07:35:58;;;;;;;9.52;6.43;;;;;;;24.52;51.57;94534.50;4208652;28;20802;-55
2022/06/25 07:38:00;;;;;;;17.25;9.82;;;;;;;24.43;51.25;94536.78;4214353;28;20136;-57
2022/06/25 07:40:04;;;;;;;13.55;8.15;;;;;;;24.46;51.46;94541.66;4219027;28;20334;-56
2022/06/25 07:42:06;;;;;;;7.75;6.70;;;;;;;24.62;51.27;94539.19;4224754;28;20387;-56
2022/06/25 07:44:08;;;;;;;11.57;6.97;;;;;;;24.79;51.89;94539.91;4205312;28;20302;-55
2022/06/25 07:46:10;;;;;;;9.55;5.90;;;;;;;24.96;51.30;94539.03;4200148;28;20039;-56
2022/06/25 07:48:12;;;;;;;12.15;6.32;;;;;;;25.12;50.87;94544.28;4200013;28;20106;-56
2022/06/25 07:52:34;;;;;;;9.57;6.63;;;;;;;25.17;50.50;94543.50;4195841;28;20048;-55
2022/06/25 07:54:36;;;;;;;13.27;6.47;;;;;;;25.16;50.14;94533.84;4202008;28;20044;-57
2022/06/25 07:56:37;;;;;;;9.70;6.82;;;;;;;25.04;50.09;94539.38;4200522;28;20048;-56
2022/06/25 07:58:39;;;;;;;8.38;6.45;;;;;;;25.12;50.49;94535.41;4196204;28;20064;-55
2022/06/25 08:00:41;;;;;;;12.75;7.65;;;;;;;25.04;49.72;94543.94;4211045;28;20100;-54
2022/06/25 08:02:43;;;;;;;10.50;7.45;;;;;;;25.08;49.76;94536.97;4208452;28;20657;-52
2022/06/25 08:04:44;;;;;;;10.68;7.50;;;;;;;25.09;49.57;94539.41;4201291;28;20050;-49
2022/06/25 08:06:47;;;;;;;10.00;6.85;;;;;;;25.08;50.03;94542.34;4202526;28;20493;-51
2022/06/25 08:08:48;;;;;;;10.18;7.22;;;;;;;25.10;49.95;94537.53;4207511;28;20517;-48
2022/06/25 08:10:51;;;;;;;10.45;7.03;;;;;;;25.20;49.72;94534.97;4205521;28;20098;-53
2022/06/25 08:12:55;;;;;;;10.40;6.50;;;;;;;25.23;49.78;94542.53;4199648;28;20199;-53
2022/06/25 08:14:56;;;;;;;10.35;6.72;;;;;;;25.30;49.53;94545.81;4205298;28;20143;-52
2022/06/25 08:16:58;;;;;;;10.00;6.63;;;;;;;25.38;49.46;94538.34;4206369;28;20052;-54
2022/06/25 08:19:00;;;;;;;9.82;6.43;;;;;;;25.47;49.46;94526.09;4215543;28;20472;-50
2022/06/25 08:21:02;;;;;;;10.18;7.75;;;;;;;25.44;49.02;94529.28;4209777;28;20169;-56
2022/06/25 08:23:05;;;;;;;18.63;7.43;;;;;;;25.57;49.32;94525.38;4220706;28;20043;-55
2022/06/25 08:25:09;;;;;;;11.85;7.20;;;;;;;25.51;48.55;94524.50;4212441;28;20285;-58
2022/06/25 08:27:11;;;;;;;11.27;7.28;;;;;;;25.54;48.46;94526.69;4206386;28;20102;-56
2022/06/25 08:29:13;;;;;;;12.50;7.72;;;;;;;25.42;48.46;94526.06;4209879;28;20056;-54
2022/06/25 08:31:15;;;;;;;13.55;7.00;;;;;;;25.66;48.33;94531.84;4207475;28;20128;-55
2022/06/25 08:33:16;;;;;;;13.45;7.05;;;;;;;25.91;47.60;94523.22;4209752;28;20067;-54
2022/06/25 08:35:18;;;;;;;14.07;7.20;;;;;;;26.14;47.44;94527.38;4209264;28;20101;-56
2022/06/25 08:37:26;;;;;;;9.70;7.07;;;;;;;26.29;46.92;94523.97;4213674;28;20052;-55
2022/06/25 08:39:28;;;;;;;11.30;6.35;;;;;;;26.43;47.51;94524.28;4213447;28;20105;-55
2022/06/25 08:41:30;;;;;;;8.88;6.40;;;;;;;26.60;47.21;94524.09;4220999;28;20163;-55
2022/06/25 08:43:32;;;;;;;11.60;6.55;;;;;;;26.69;47.27;94534.06;4226415;28;20138;-57
2022/06/25 08:45:34;;;;;;;11.57;6.32;;;;;;;26.80;46.60;94534.09;4191793;28;20061;-56
2022/06/25 08:47:46;;;;;;;8.38;6.22;;;;;;;26.73;45.93;94539.72;4197593;28;20560;-58
2022/06/25 08:49:48;;;;;;;8.05;6.55;;;;;;;26.73;46.71;94542.41;4200063;28;20056;-59
2022/06/25 08:51:54;;;;;;;9.35;6.32;;;;;;;26.81;46.42;94546.47;4204818;28;20056;-55
2022/06/25 08:53:56;;;;;;;12.25;6.85;;;;;;;26.88;46.58;94547.03;4208735;28;20432;-56
2022/06/25 08:56:02;;;;;;;16.60;7.32;;;;;;;26.94;46.45;94536.03;4202936;28;20469;-58
2022/06/25 08:58:05;;;;;;;9.93;6.72;;;;;;;26.90;45.68;94540.31;4200955;28;20381;-56
2022/06/25 09:00:07;;;;;;;13.50;6.47;;;;;;;27.06;45.07;94543.03;4195778;28;20495;-57
2022/06/25 09:02:19;;;;;;;9.63;6.57;;;;;;;26.95;46.13;94536.81;4208433;28;20062;-57
2022/06/25 09:04:21;;;;;;;9.88;6.65;;;;;;;27.08;46.39;94535.50;4209533;28;20119;-56
2022/06/25 09:06:22;;;;;;;13.32;7.47;;;;;;;26.95;45.51;94540.34;4208627;28;20492;-56
2022/06/25 09:08:24;;;;;;;10.85;6.80;;;;;;;26.68;45.90;94547.78;4198848;28;20080;-56
2022/06/25 09:10:27;;;;;;;15.05;8.68;;;;;;;26.38;46.79;94543.88;4204585;28;20157;-56
2022/06/25 09:12:29;;;;;;;16.95;7.65;;;;;;;26.61;46.95;94544.50;4204493;28;20048;-58
2022/06/25 09:14:32;;;;;;;15.65;7.30;;;;;;;26.67;46.62;94555.03;4205399;28;20070;-55
2022/06/25 09:16:34;;;;;;;13.32;7.05;;;;;;;26.73;47.02;94550.47;4193981;28;20048;-57
2022/06/25 09:18:36;;;;;;;12.63;7.32;;;;;;;26.98;46.40;94546.25;4203394;28;20175;-56
2022/06/25 09:20:59;;;;;;;18.15;7.50;;;;;;;26.81;46.87;94543.78;4200846;28;20073;-56
2022/06/25 09:23:04;;;;;;;12.07;7.03;;;;;;;26.76;46.63;94548.06;4188481;28;20540;-55
2022/06/25 09:25:06;;;;;;;11.98;7.32;;;;;;;26.91;46.76;94551.88;4201388;28;20052;-57
2022/06/25 09:27:08;;;;;;;12.27;7.40;;;;;;;26.98;46.27;94539.00;4203856;28;20075;-57
2022/06/25 09:29:10;;;;;;;14.23;7.70;;;;;;;26.85;46.72;94545.69;4200375;28;20469;-56
2022/06/25 09:31:12;;;;;;;14.18;8.30;;;;;;;26.88;46.82;94544.34;4195879;28;20113;-57
2022/06/25 09:33:14;;;;;;;13.25;7.18;;;;;;;26.92;46.32;94537.38;4192473;28;20147;-56
2022/06/25 09:35:37;;;;;;;13.93;7.70;;;;;;;27.24;46.54;94539.88;4191553;28;20053;-58
2022/06/25 09:37:40;;;;;;;11.98;6.70;;;;;;;27.67;45.79;94543.13;4208118;28;20081;-57
2022/06/25 09:39:42;;;;;;;15.70;8.38;;;;;;;27.96;44.92;94547.94;4208987;28;20044;-58
2022/06/25 09:41:48;;;;;;;10.60;6.82;;;;;;;27.39;44.90;94559.78;4208277;28;20052;-58
2022/06/25 09:43:51;;;;;;;15.68;8.35;;;;;;;27.04;46.86;94546.00;4206866;28;20245;-57
2022/06/25 09:45:55;;;;;;;13.18;7.53;;;;;;;27.04;46.49;94545.16;4207491;28;20052;-57
2022/06/25 09:47:56;;;;;;;;;;;;;;;27.02;46.53;94534.72;4198173;28;20052;-56